ěÝzenÝ letovÚho provozu ╚eskÚ republiky
Letiste: LKPR Aktualizace: 26.09.2022 16:34:32  UTC
 METAR LKPR 26.09. 16:30 RRA
METAR LKPR 261630Z 22006KT 180V270 CAVOK 14/08 Q1004 NOSIG=
 TAF LKPR 26.09. 11:00 ...
TAF LKPR 261100Z 2612/2718 21006KT 9999 BKN040      TEMPO 2613/2618 29010KT 9000 -SHRA SCT025TCU      BECMG 2618/2620 CAVOK      BECMG 2706/2708 22016KT 9999 BKN030      TEMPO 2708/2718 27015G30KT 6000 SHRA BKN017TCU=